sensor_id;sensor_type;location;lat;lon;timestamp;P1;durP1;ratioP1;P2;durP2;ratioP2
69172;SDS011;56280;49.662;8.408;2023-04-09T00:01:37;25.73;;;23.63;;
69172;SDS011;56280;49.662;8.408;2023-04-09T00:04:02;23.70;;;21.70;;
69172;SDS011;56280;49.662;8.408;2023-04-09T00:06:27;23.50;;;21.50;;
69172;SDS011;56280;49.662;8.408;2023-04-09T00:08:53;23.13;;;21.23;;
69172;SDS011;56280;49.662;8.408;2023-04-09T00:11:18;23.23;;;21.23;;
69172;SDS011;56280;49.662;8.408;2023-04-09T00:13:43;23.97;;;21.90;;
69172;SDS011;56280;49.662;8.408;2023-04-09T00:16:09;24.30;;;22.20;;
69172;SDS011;56280;49.662;8.408;2023-04-09T00:18:34;23.33;;;21.37;;
69172;SDS011;56280;49.662;8.408;2023-04-09T00:21:00;23.63;;;21.60;;
69172;SDS011;56280;49.662;8.408;2023-04-09T00:23:25;24.45;;;22.45;;
69172;SDS011;56280;49.662;8.408;2023-04-09T00:25:50;24.20;;;22.00;;
69172;SDS011;56280;49.662;8.408;2023-04-09T00:28:16;24.70;;;22.70;;
69172;SDS011;56280;49.662;8.408;2023-04-09T00:30:41;25.10;;;23.00;;
69172;SDS011;56280;49.662;8.408;2023-04-09T00:33:06;25.70;;;23.60;;
69172;SDS011;56280;49.662;8.408;2023-04-09T00:35:31;24.70;;;22.50;;
69172;SDS011;56280;49.662;8.408;2023-04-09T00:37:57;24.80;;;22.80;;
69172;SDS011;56280;49.662;8.408;2023-04-09T00:40:22;25.33;;;23.33;;
69172;SDS011;56280;49.662;8.408;2023-04-09T00:42:47;25.13;;;23.03;;
69172;SDS011;56280;49.662;8.408;2023-04-09T00:45:14;24.33;;;22.33;;
69172;SDS011;56280;49.662;8.408;2023-04-09T00:47:40;23.60;;;21.63;;
69172;SDS011;56280;49.662;8.408;2023-04-09T00:50:07;23.85;;;21.85;;
69172;SDS011;56280;49.662;8.408;2023-04-09T00:52:33;24.27;;;22.17;;
69172;SDS011;56280;49.662;8.408;2023-04-09T00:54:59;23.97;;;21.87;;
69172;SDS011;56280;49.662;8.408;2023-04-09T00:57:25;24.00;;;22.00;;
69172;SDS011;56280;49.662;8.408;2023-04-09T00:59:50;22.50;;;20.50;;
69172;SDS011;56280;49.662;8.408;2023-04-09T01:02:16;23.50;;;21.60;;
69172;SDS011;56280;49.662;8.408;2023-04-09T01:04:41;23.37;;;21.47;;
69172;SDS011;56280;49.662;8.408;2023-04-09T01:09:42;23.65;;;21.55;;
69172;SDS011;56280;49.662;8.408;2023-04-09T01:12:20;23.60;;;21.60;;
69172;SDS011;56280;49.662;8.408;2023-04-09T01:15:04;24.65;;;22.60;;
69172;SDS011;56280;49.662;8.408;2023-04-09T01:17:33;25.00;;;22.80;;
69172;SDS011;56280;49.662;8.408;2023-04-09T01:20:13;24.92;;;22.73;;
69172;SDS011;56280;49.662;8.408;2023-04-09T01:28:26;25.40;;;23.23;;
69172;SDS011;56280;49.662;8.408;2023-04-09T01:30:58;26.70;;;24.50;;
69172;SDS011;56280;49.662;8.408;2023-04-09T01:33:28;25.40;;;23.10;;
69172;SDS011;56280;49.662;8.408;2023-04-09T01:35:55;25.00;;;22.90;;
69172;SDS011;56280;49.662;8.408;2023-04-09T01:38:21;27.88;;;25.58;;
69172;SDS011;56280;49.662;8.408;2023-04-09T01:40:48;24.30;;;22.37;;
69172;SDS011;56280;49.662;8.408;2023-04-09T01:43:14;26.37;;;24.27;;
69172;SDS011;56280;49.662;8.408;2023-04-09T01:45:41;27.35;;;25.05;;
69172;SDS011;56280;49.662;8.408;2023-04-09T01:48:08;25.77;;;23.67;;
69172;SDS011;56280;49.662;8.408;2023-04-09T01:50:34;25.13;;;23.03;;
69172;SDS011;56280;49.662;8.408;2023-04-09T01:52:59;25.60;;;23.50;;
69172;SDS011;56280;49.662;8.408;2023-04-09T01:55:25;25.30;;;23.08;;
69172;SDS011;56280;49.662;8.408;2023-04-09T01:57:51;25.05;;;23.00;;
69172;SDS011;56280;49.662;8.408;2023-04-09T02:00:16;26.53;;;24.23;;
69172;SDS011;56280;49.662;8.408;2023-04-09T02:02:48;26.85;;;24.73;;
69172;SDS011;56280;49.662;8.408;2023-04-09T02:05:28;25.58;;;23.40;;
69172;SDS011;56280;49.662;8.408;2023-04-09T02:07:57;25.35;;;23.15;;
69172;SDS011;56280;49.662;8.408;2023-04-09T02:10:26;26.27;;;23.97;;
69172;SDS011;56280;49.662;8.408;2023-04-09T02:12:55;27.23;;;24.73;;
69172;SDS011;56280;49.662;8.408;2023-04-09T02:15:22;27.30;;;24.80;;
69172;SDS011;56280;49.662;8.408;2023-04-09T02:17:48;27.88;;;25.38;;
69172;SDS011;56280;49.662;8.408;2023-04-09T02:20:17;27.52;;;25.02;;
69172;SDS011;56280;49.662;8.408;2023-04-09T02:22:44;28.67;;;25.97;;
69172;SDS011;56280;49.662;8.408;2023-04-09T02:25:09;27.30;;;24.48;;
69172;SDS011;56280;49.662;8.408;2023-04-09T02:27:35;29.45;;;26.70;;
69172;SDS011;56280;49.662;8.408;2023-04-09T02:30:00;28.63;;;25.83;;
69172;SDS011;56280;49.662;8.408;2023-04-09T02:32:26;27.77;;;25.08;;
69172;SDS011;56280;49.662;8.408;2023-04-09T02:34:51;28.53;;;25.73;;
69172;SDS011;56280;49.662;8.408;2023-04-09T02:37:16;27.97;;;25.27;;
69172;SDS011;56280;49.662;8.408;2023-04-09T02:39:42;28.67;;;25.67;;
69172;SDS011;56280;49.662;8.408;2023-04-09T02:42:07;28.33;;;25.63;;
69172;SDS011;56280;49.662;8.408;2023-04-09T02:44:33;27.47;;;24.77;;
69172;SDS011;56280;49.662;8.408;2023-04-09T02:46:58;29.63;;;26.83;;
69172;SDS011;56280;49.662;8.408;2023-04-09T02:49:23;27.13;;;24.43;;
69172;SDS011;56280;49.662;8.408;2023-04-09T02:51:49;28.13;;;25.40;;
69172;SDS011;56280;49.662;8.408;2023-04-09T02:54:14;27.80;;;25.07;;
69172;SDS011;56280;49.662;8.408;2023-04-09T02:56:40;28.83;;;25.83;;
69172;SDS011;56280;49.662;8.408;2023-04-09T02:59:05;28.30;;;25.40;;
69172;SDS011;56280;49.662;8.408;2023-04-09T03:01:30;26.83;;;24.20;;
69172;SDS011;56280;49.662;8.408;2023-04-09T03:03:56;29.03;;;26.33;;
69172;SDS011;56280;49.662;8.408;2023-04-09T03:06:21;28.07;;;25.07;;
69172;SDS011;56280;49.662;8.408;2023-04-09T03:08:46;26.93;;;24.23;;
69172;SDS011;56280;49.662;8.408;2023-04-09T03:11:11;26.47;;;23.77;;
69172;SDS011;56280;49.662;8.408;2023-04-09T03:13:37;28.07;;;25.27;;
69172;SDS011;56280;49.662;8.408;2023-04-09T03:16:02;28.80;;;25.90;;
69172;SDS011;56280;49.662;8.408;2023-04-09T03:18:27;26.83;;;24.23;;
69172;SDS011;56280;49.662;8.408;2023-04-09T03:20:53;26.97;;;24.33;;
69172;SDS011;56280;49.662;8.408;2023-04-09T03:23:18;27.73;;;25.03;;
69172;SDS011;56280;49.662;8.408;2023-04-09T03:25:43;28.03;;;25.30;;
69172;SDS011;56280;49.662;8.408;2023-04-09T03:28:08;26.57;;;23.77;;
69172;SDS011;56280;49.662;8.408;2023-04-09T03:30:34;28.07;;;25.17;;
69172;SDS011;56280;49.662;8.408;2023-04-09T03:32:59;28.55;;;25.73;;
69172;SDS011;56280;49.662;8.408;2023-04-09T03:35:25;26.73;;;24.10;;
69172;SDS011;56280;49.662;8.408;2023-04-09T03:37:50;27.77;;;24.97;;
69172;SDS011;56280;49.662;8.408;2023-04-09T03:40:15;28.90;;;26.10;;
69172;SDS011;56280;49.662;8.408;2023-04-09T03:42:41;26.70;;;24.00;;
69172;SDS011;56280;49.662;8.408;2023-04-09T03:45:07;29.40;;;26.53;;
69172;SDS011;56280;49.662;8.408;2023-04-09T03:47:32;28.30;;;25.50;;
69172;SDS011;56280;49.662;8.408;2023-04-09T03:49:57;29.03;;;26.13;;
69172;SDS011;56280;49.662;8.408;2023-04-09T03:52:23;27.57;;;24.80;;
69172;SDS011;56280;49.662;8.408;2023-04-09T03:54:48;27.27;;;24.63;;
69172;SDS011;56280;49.662;8.408;2023-04-09T03:57:13;28.30;;;25.30;;
69172;SDS011;56280;49.662;8.408;2023-04-09T03:59:38;28.90;;;26.00;;
69172;SDS011;56280;49.662;8.408;2023-04-09T04:02:04;27.63;;;25.03;;
69172;SDS011;56280;49.662;8.408;2023-04-09T04:04:29;28.40;;;25.50;;
69172;SDS011;56280;49.662;8.408;2023-04-09T04:06:55;28.17;;;25.37;;
69172;SDS011;56280;49.662;8.408;2023-04-09T04:09:20;27.77;;;25.13;;
69172;SDS011;56280;49.662;8.408;2023-04-09T04:11:45;28.70;;;25.93;;
69172;SDS011;56280;49.662;8.408;2023-04-09T04:14:11;29.15;;;26.35;;
69172;SDS011;56280;49.662;8.408;2023-04-09T04:16:36;29.53;;;26.67;;
69172;SDS011;56280;49.662;8.408;2023-04-09T04:19:01;27.57;;;24.77;;
69172;SDS011;56280;49.662;8.408;2023-04-09T04:21:26;27.43;;;24.73;;
69172;SDS011;56280;49.662;8.408;2023-04-09T04:23:52;28.57;;;25.87;;
69172;SDS011;56280;49.662;8.408;2023-04-09T04:26:17;28.00;;;25.20;;
69172;SDS011;56280;49.662;8.408;2023-04-09T04:28:42;28.00;;;25.30;;
69172;SDS011;56280;49.662;8.408;2023-04-09T04:31:08;28.00;;;25.20;;
69172;SDS011;56280;49.662;8.408;2023-04-09T04:33:35;26.98;;;24.27;;
69172;SDS011;56280;49.662;8.408;2023-04-09T04:36:04;26.23;;;23.83;;
69172;SDS011;56280;49.662;8.408;2023-04-09T04:38:30;27.27;;;24.50;;
69172;SDS011;56280;49.662;8.408;2023-04-09T04:40:56;29.43;;;26.53;;
69172;SDS011;56280;49.662;8.408;2023-04-09T04:43:21;28.27;;;25.43;;
69172;SDS011;56280;49.662;8.408;2023-04-09T04:45:46;29.40;;;26.60;;
69172;SDS011;56280;49.662;8.408;2023-04-09T04:48:12;27.30;;;24.50;;
69172;SDS011;56280;49.662;8.408;2023-04-09T04:50:37;29.10;;;26.30;;
69172;SDS011;56280;49.662;8.408;2023-04-09T04:53:02;28.03;;;25.13;;
69172;SDS011;56280;49.662;8.408;2023-04-09T04:55:27;29.10;;;26.10;;
69172;SDS011;56280;49.662;8.408;2023-04-09T04:57:53;28.10;;;25.20;;
69172;SDS011;56280;49.662;8.408;2023-04-09T05:00:18;28.20;;;25.50;;
69172;SDS011;56280;49.662;8.408;2023-04-09T05:02:43;28.30;;;25.43;;
69172;SDS011;56280;49.662;8.408;2023-04-09T05:05:09;27.13;;;24.37;;
69172;SDS011;56280;49.662;8.408;2023-04-09T05:07:34;29.25;;;26.35;;
69172;SDS011;56280;49.662;8.408;2023-04-09T05:10:00;28.93;;;26.03;;
69172;SDS011;56280;49.662;8.408;2023-04-09T05:12:25;28.63;;;25.77;;
69172;SDS011;56280;49.662;8.408;2023-04-09T05:14:50;28.97;;;26.20;;
69172;SDS011;56280;49.662;8.408;2023-04-09T05:17:16;29.25;;;26.30;;
69172;SDS011;56280;49.662;8.408;2023-04-09T05:19:41;28.52;;;25.70;;
69172;SDS011;56280;49.662;8.408;2023-04-09T05:22:06;27.88;;;25.08;;
69172;SDS011;56280;49.662;8.408;2023-04-09T05:24:32;30.13;;;27.13;;
69172;SDS011;56280;49.662;8.408;2023-04-09T05:26:57;29.40;;;26.40;;
69172;SDS011;56280;49.662;8.408;2023-04-09T05:29:22;29.70;;;26.67;;
69172;SDS011;56280;49.662;8.408;2023-04-09T05:31:47;29.70;;;26.70;;
69172;SDS011;56280;49.662;8.408;2023-04-09T05:34:13;28.63;;;25.83;;
69172;SDS011;56280;49.662;8.408;2023-04-09T05:36:38;29.50;;;26.50;;
69172;SDS011;56280;49.662;8.408;2023-04-09T05:39:03;28.43;;;25.53;;
69172;SDS011;56280;49.662;8.408;2023-04-09T05:41:29;28.17;;;25.37;;
69172;SDS011;56280;49.662;8.408;2023-04-09T05:43:54;28.77;;;25.93;;
69172;SDS011;56280;49.662;8.408;2023-04-09T05:46:20;29.67;;;26.77;;
69172;SDS011;56280;49.662;8.408;2023-04-09T05:48:45;29.53;;;26.53;;
69172;SDS011;56280;49.662;8.408;2023-04-09T05:51:11;29.40;;;26.40;;
69172;SDS011;56280;49.662;8.408;2023-04-09T05:53:36;30.10;;;27.10;;
69172;SDS011;56280;49.662;8.408;2023-04-09T05:56:01;30.00;;;27.13;;
69172;SDS011;56280;49.662;8.408;2023-04-09T05:58:27;29.47;;;26.47;;
69172;SDS011;56280;49.662;8.408;2023-04-09T06:00:53;31.77;;;28.58;;
69172;SDS011;56280;49.662;8.408;2023-04-09T06:03:18;30.50;;;27.47;;
69172;SDS011;56280;49.662;8.408;2023-04-09T06:05:44;30.70;;;27.63;;
69172;SDS011;56280;49.662;8.408;2023-04-09T06:08:09;29.43;;;26.43;;
69172;SDS011;56280;49.662;8.408;2023-04-09T06:10:35;30.57;;;27.53;;
69172;SDS011;56280;49.662;8.408;2023-04-09T06:13:00;29.57;;;26.47;;
69172;SDS011;56280;49.662;8.408;2023-04-09T06:15:26;30.07;;;27.07;;
69172;SDS011;56280;49.662;8.408;2023-04-09T06:17:51;29.67;;;26.75;;
69172;SDS011;56280;49.662;8.408;2023-04-09T06:20:16;29.43;;;26.27;;
69172;SDS011;56280;49.662;8.408;2023-04-09T06:22:42;28.97;;;26.07;;
69172;SDS011;56280;49.662;8.408;2023-04-09T06:25:07;31.50;;;28.50;;
69172;SDS011;56280;49.662;8.408;2023-04-09T06:27:32;29.77;;;26.77;;
69172;SDS011;56280;49.662;8.408;2023-04-09T06:29:58;29.73;;;26.93;;
69172;SDS011;56280;49.662;8.408;2023-04-09T06:32:23;29.98;;;26.98;;
69172;SDS011;56280;49.662;8.408;2023-04-09T06:34:49;30.80;;;27.70;;
69172;SDS011;56280;49.662;8.408;2023-04-09T06:37:14;30.20;;;27.20;;
69172;SDS011;56280;49.662;8.408;2023-04-09T06:39:39;28.70;;;25.97;;
69172;SDS011;56280;49.662;8.408;2023-04-09T06:42:05;29.77;;;26.87;;
69172;SDS011;56280;49.662;8.408;2023-04-09T06:44:32;30.65;;;27.65;;
69172;SDS011;56280;49.662;8.408;2023-04-09T06:46:57;31.30;;;28.30;;
69172;SDS011;56280;49.662;8.408;2023-04-09T06:49:23;30.70;;;27.60;;
69172;SDS011;56280;49.662;8.408;2023-04-09T06:51:48;30.10;;;27.20;;
69172;SDS011;56280;49.662;8.408;2023-04-09T06:54:16;30.33;;;27.42;;
69172;SDS011;56280;49.662;8.408;2023-04-09T06:56:41;32.30;;;29.20;;
69172;SDS011;56280;49.662;8.408;2023-04-09T06:59:07;31.10;;;28.00;;
69172;SDS011;56280;49.662;8.408;2023-04-09T07:01:32;31.67;;;28.42;;
69172;SDS011;56280;49.662;8.408;2023-04-09T07:03:59;32.70;;;29.38;;
69172;SDS011;56280;49.662;8.408;2023-04-09T07:06:25;33.33;;;29.97;;
69172;SDS011;56280;49.662;8.408;2023-04-09T07:08:50;31.90;;;28.60;;
69172;SDS011;56280;49.662;8.408;2023-04-09T07:11:15;33.93;;;30.63;;
69172;SDS011;56280;49.662;8.408;2023-04-09T07:13:41;33.63;;;30.37;;
69172;SDS011;56280;49.662;8.408;2023-04-09T07:16:06;32.78;;;29.65;;
69172;SDS011;56280;49.662;8.408;2023-04-09T07:18:32;32.83;;;29.73;;
69172;SDS011;56280;49.662;8.408;2023-04-09T07:20:57;32.83;;;29.63;;
69172;SDS011;56280;49.662;8.408;2023-04-09T07:23:22;34.23;;;30.83;;
69172;SDS011;56280;49.662;8.408;2023-04-09T07:25:47;30.83;;;27.87;;
69172;SDS011;56280;49.662;8.408;2023-04-09T07:28:13;32.20;;;29.17;;
69172;SDS011;56280;49.662;8.408;2023-04-09T07:30:38;32.70;;;29.47;;
69172;SDS011;56280;49.662;8.408;2023-04-09T07:33:04;31.65;;;28.45;;
69172;SDS011;56280;49.662;8.408;2023-04-09T07:35:29;30.90;;;27.83;;
69172;SDS011;56280;49.662;8.408;2023-04-09T07:37:55;32.67;;;29.63;;
69172;SDS011;56280;49.662;8.408;2023-04-09T07:40:21;32.67;;;29.47;;
69172;SDS011;56280;49.662;8.408;2023-04-09T07:42:46;31.83;;;28.73;;
69172;SDS011;56280;49.662;8.408;2023-04-09T07:45:12;31.83;;;28.73;;
69172;SDS011;56280;49.662;8.408;2023-04-09T07:47:37;31.53;;;28.40;;
69172;SDS011;56280;49.662;8.408;2023-04-09T07:50:04;24.80;;;20.03;;
69172;SDS011;56280;49.662;8.408;2023-04-09T07:52:30;21.73;;;16.30;;
69172;SDS011;56280;49.662;8.408;2023-04-09T07:54:55;23.53;;;17.17;;
69172;SDS011;56280;49.662;8.408;2023-04-09T07:57:20;23.17;;;15.63;;
69172;SDS011;56280;49.662;8.408;2023-04-09T07:59:46;24.40;;;15.53;;
69172;SDS011;56280;49.662;8.408;2023-04-09T08:02:11;23.97;;;16.00;;
69172;SDS011;56280;49.662;8.408;2023-04-09T08:04:36;22.63;;;15.00;;
69172;SDS011;56280;49.662;8.408;2023-04-09T08:07:02;23.83;;;14.97;;
69172;SDS011;56280;49.662;8.408;2023-04-09T08:09:27;22.90;;;15.27;;
69172;SDS011;56280;49.662;8.408;2023-04-09T08:11:52;23.10;;;15.30;;
69172;SDS011;56280;49.662;8.408;2023-04-09T08:14:17;23.13;;;14.90;;
69172;SDS011;56280;49.662;8.408;2023-04-09T08:16:44;22.53;;;15.10;;
69172;SDS011;56280;49.662;8.408;2023-04-09T08:19:11;21.90;;;14.68;;
69172;SDS011;56280;49.662;8.408;2023-04-09T08:21:37;22.13;;;15.10;;
69172;SDS011;56280;49.662;8.408;2023-04-09T08:24:09;22.13;;;15.45;;
69172;SDS011;56280;49.662;8.408;2023-04-09T08:26:38;24.02;;;16.17;;
69172;SDS011;56280;49.662;8.408;2023-04-09T08:29:05;25.17;;;15.68;;
69172;SDS011;56280;49.662;8.408;2023-04-09T08:31:31;20.13;;;14.37;;
69172;SDS011;56280;49.662;8.408;2023-04-09T08:33:56;20.35;;;14.40;;
69172;SDS011;56280;49.662;8.408;2023-04-09T08:36:22;20.08;;;14.05;;
69172;SDS011;56280;49.662;8.408;2023-04-09T08:38:47;20.77;;;14.60;;
69172;SDS011;56280;49.662;8.408;2023-04-09T08:41:17;21.37;;;14.30;;
69172;SDS011;56280;49.662;8.408;2023-04-09T08:43:48;20.63;;;14.75;;
69172;SDS011;56280;49.662;8.408;2023-04-09T08:46:15;20.75;;;14.43;;
69172;SDS011;56280;49.662;8.408;2023-04-09T08:48:44;20.20;;;13.70;;
69172;SDS011;56280;49.662;8.408;2023-04-09T08:51:21;20.55;;;14.07;;
69172;SDS011;56280;49.662;8.408;2023-04-09T08:53:49;19.60;;;13.70;;
69172;SDS011;56280;49.662;8.408;2023-04-09T08:56:20;19.08;;;13.40;;
69172;SDS011;56280;49.662;8.408;2023-04-09T08:58:46;17.80;;;13.07;;
69172;SDS011;56280;49.662;8.408;2023-04-09T09:01:19;19.50;;;13.75;;
69172;SDS011;56280;49.662;8.408;2023-04-09T09:03:58;19.20;;;14.20;;
69172;SDS011;56280;49.662;8.408;2023-04-09T09:06:29;18.50;;;13.45;;
69172;SDS011;56280;49.662;8.408;2023-04-09T09:11:33;19.67;;;14.07;;
69172;SDS011;56280;49.662;8.408;2023-04-09T09:16:28;19.37;;;13.77;;
69172;SDS011;56280;49.662;8.408;2023-04-09T09:18:53;20.33;;;14.27;;
69172;SDS011;56280;49.662;8.408;2023-04-09T09:21:20;18.47;;;13.57;;
69172;SDS011;56280;49.662;8.408;2023-04-09T09:23:46;19.00;;;13.13;;
69172;SDS011;56280;49.662;8.408;2023-04-09T09:26:19;17.58;;;12.65;;
69172;SDS011;56280;49.662;8.408;2023-04-09T09:28:47;17.75;;;12.85;;
69172;SDS011;56280;49.662;8.408;2023-04-09T09:31:14;16.88;;;12.68;;
69172;SDS011;56280;49.662;8.408;2023-04-09T09:33:40;18.45;;;12.70;;
69172;SDS011;56280;49.662;8.408;2023-04-09T09:36:06;16.87;;;12.47;;
69172;SDS011;56280;49.662;8.408;2023-04-09T09:38:54;17.75;;;12.63;;
69172;SDS011;56280;49.662;8.408;2023-04-09T09:41:21;18.92;;;13.68;;
69172;SDS011;56280;49.662;8.408;2023-04-09T09:43:47;16.80;;;12.32;;
69172;SDS011;56280;49.662;8.408;2023-04-09T09:46:12;15.63;;;11.63;;
69172;SDS011;56280;49.662;8.408;2023-04-09T09:48:39;15.63;;;11.43;;
69172;SDS011;56280;49.662;8.408;2023-04-09T09:51:07;15.63;;;11.18;;
69172;SDS011;56280;49.662;8.408;2023-04-09T09:53:38;17.50;;;12.32;;
69172;SDS011;56280;49.662;8.408;2023-04-09T09:56:05;16.40;;;11.95;;
69172;SDS011;56280;49.662;8.408;2023-04-09T09:58:39;16.55;;;12.38;;
69172;SDS011;56280;49.662;8.408;2023-04-09T10:01:08;16.48;;;12.45;;
69172;SDS011;56280;49.662;8.408;2023-04-09T10:03:37;17.50;;;12.85;;
69172;SDS011;56280;49.662;8.408;2023-04-09T10:06:04;16.73;;;12.30;;
69172;SDS011;56280;49.662;8.408;2023-04-09T10:08:32;15.13;;;11.30;;
69172;SDS011;56280;49.662;8.408;2023-04-09T10:10:59;14.97;;;11.20;;
69172;SDS011;56280;49.662;8.408;2023-04-09T10:13:28;16.42;;;11.95;;
69172;SDS011;56280;49.662;8.408;2023-04-09T10:15:57;16.42;;;12.10;;
69172;SDS011;56280;49.662;8.408;2023-04-09T10:18:23;17.10;;;12.40;;
69172;SDS011;56280;49.662;8.408;2023-04-09T10:21:00;15.85;;;11.75;;
69172;SDS011;56280;49.662;8.408;2023-04-09T10:23:41;17.58;;;12.55;;
69172;SDS011;56280;49.662;8.408;2023-04-09T10:26:08;17.20;;;12.30;;
69172;SDS011;56280;49.662;8.408;2023-04-09T10:28:35;15.97;;;11.90;;
69172;SDS011;56280;49.662;8.408;2023-04-09T10:31:01;16.33;;;11.77;;
69172;SDS011;56280;49.662;8.408;2023-04-09T10:33:28;16.60;;;11.30;;
69172;SDS011;56280;49.662;8.408;2023-04-09T10:35:54;14.10;;;10.50;;
69172;SDS011;56280;49.662;8.408;2023-04-09T10:38:31;15.60;;;10.88;;
69172;SDS011;56280;49.662;8.408;2023-04-09T10:40:57;15.40;;;10.77;;
69172;SDS011;56280;49.662;8.408;2023-04-09T10:43:22;15.40;;;10.93;;
69172;SDS011;56280;49.662;8.408;2023-04-09T10:45:48;14.10;;;10.10;;
69172;SDS011;56280;49.662;8.408;2023-04-09T10:48:18;13.38;;;10.10;;
69172;SDS011;56280;49.662;8.408;2023-04-09T10:50:43;13.43;;;9.93;;
69172;SDS011;56280;49.662;8.408;2023-04-09T10:53:22;13.67;;;10.03;;
69172;SDS011;56280;49.662;8.408;2023-04-09T10:55:53;12.90;;;9.55;;
69172;SDS011;56280;49.662;8.408;2023-04-09T10:58:19;12.00;;;8.75;;
69172;SDS011;56280;49.662;8.408;2023-04-09T11:00:45;11.50;;;8.40;;
69172;SDS011;56280;49.662;8.408;2023-04-09T11:03:28;11.20;;;8.13;;
69172;SDS011;56280;49.662;8.408;2023-04-09T11:06:03;11.77;;;8.50;;
69172;SDS011;56280;49.662;8.408;2023-04-09T11:08:31;12.45;;;9.35;;
69172;SDS011;56280;49.662;8.408;2023-04-09T11:10:57;14.52;;;10.93;;
69172;SDS011;56280;49.662;8.408;2023-04-09T11:13:25;15.40;;;11.90;;
69172;SDS011;56280;49.662;8.408;2023-04-09T11:15:52;15.48;;;11.77;;
69172;SDS011;56280;49.662;8.408;2023-04-09T11:18:26;15.95;;;11.88;;
69172;SDS011;56280;49.662;8.408;2023-04-09T11:20:53;16.33;;;11.93;;
69172;SDS011;56280;49.662;8.408;2023-04-09T11:23:20;15.85;;;11.48;;
69172;SDS011;56280;49.662;8.408;2023-04-09T11:25:49;15.52;;;11.10;;
69172;SDS011;56280;49.662;8.408;2023-04-09T11:28:15;15.13;;;10.75;;
69172;SDS011;56280;49.662;8.408;2023-04-09T11:30:41;12.60;;;9.75;;
69172;SDS011;56280;49.662;8.408;2023-04-09T11:33:07;12.43;;;9.47;;
69172;SDS011;56280;49.662;8.408;2023-04-09T11:35:33;12.63;;;9.48;;
69172;SDS011;56280;49.662;8.408;2023-04-09T11:38:00;13.57;;;10.13;;
69172;SDS011;56280;49.662;8.408;2023-04-09T11:40:29;12.40;;;9.27;;
69172;SDS011;56280;49.662;8.408;2023-04-09T11:42:55;13.70;;;10.07;;
69172;SDS011;56280;49.662;8.408;2023-04-09T11:45:24;11.40;;;8.63;;
69172;SDS011;56280;49.662;8.408;2023-04-09T11:47:51;12.80;;;9.65;;
69172;SDS011;56280;49.662;8.408;2023-04-09T11:50:17;14.00;;;9.50;;
69172;SDS011;56280;49.662;8.408;2023-04-09T11:52:44;13.07;;;9.40;;
69172;SDS011;56280;49.662;8.408;2023-04-09T11:55:10;9.98;;;7.80;;
69172;SDS011;56280;49.662;8.408;2023-04-09T11:57:40;10.30;;;7.70;;
69172;SDS011;56280;49.662;8.408;2023-04-09T12:00:10;10.15;;;7.80;;
69172;SDS011;56280;49.662;8.408;2023-04-09T12:02:40;10.10;;;7.60;;
69172;SDS011;56280;49.662;8.408;2023-04-09T12:05:08;11.00;;;7.80;;
69172;SDS011;56280;49.662;8.408;2023-04-09T12:07:36;10.27;;;7.50;;
69172;SDS011;56280;49.662;8.408;2023-04-09T12:10:08;10.27;;;7.80;;
69172;SDS011;56280;49.662;8.408;2023-04-09T12:12:44;9.67;;;7.27;;
69172;SDS011;56280;49.662;8.408;2023-04-09T12:15:11;9.40;;;7.20;;
69172;SDS011;56280;49.662;8.408;2023-04-09T12:17:47;9.57;;;7.00;;
69172;SDS011;56280;49.662;8.408;2023-04-09T12:20:24;9.95;;;7.50;;
69172;SDS011;56280;49.662;8.408;2023-04-09T12:22:56;10.13;;;7.35;;
69172;SDS011;56280;49.662;8.408;2023-04-09T12:25:24;9.68;;;7.47;;
69172;SDS011;56280;49.662;8.408;2023-04-09T12:27:49;9.13;;;6.73;;
69172;SDS011;56280;49.662;8.408;2023-04-09T12:30:14;10.23;;;7.83;;
69172;SDS011;56280;49.662;8.408;2023-04-09T12:32:40;10.33;;;7.40;;
69172;SDS011;56280;49.662;8.408;2023-04-09T12:35:06;10.20;;;7.55;;
69172;SDS011;56280;49.662;8.408;2023-04-09T12:37:32;9.30;;;7.25;;
69172;SDS011;56280;49.662;8.408;2023-04-09T12:39:57;8.57;;;6.67;;
69172;SDS011;56280;49.662;8.408;2023-04-09T12:42:22;9.73;;;7.03;;
69172;SDS011;56280;49.662;8.408;2023-04-09T12:44:48;9.15;;;6.78;;
69172;SDS011;56280;49.662;8.408;2023-04-09T12:47:13;8.73;;;6.90;;
69172;SDS011;56280;49.662;8.408;2023-04-09T12:49:38;9.40;;;7.30;;
69172;SDS011;56280;49.662;8.408;2023-04-09T12:52:04;8.68;;;6.68;;
69172;SDS011;56280;49.662;8.408;2023-04-09T12:54:29;8.40;;;6.40;;
69172;SDS011;56280;49.662;8.408;2023-04-09T12:56:55;8.60;;;6.30;;
69172;SDS011;56280;49.662;8.408;2023-04-09T12:59:20;7.83;;;5.93;;
69172;SDS011;56280;49.662;8.408;2023-04-09T13:01:45;9.17;;;6.90;;
69172;SDS011;56280;49.662;8.408;2023-04-09T13:04:10;9.18;;;6.35;;
69172;SDS011;56280;49.662;8.408;2023-04-09T13:06:36;7.90;;;5.80;;
69172;SDS011;56280;49.662;8.408;2023-04-09T13:09:01;8.23;;;5.70;;
69172;SDS011;56280;49.662;8.408;2023-04-09T13:11:27;7.87;;;5.80;;
69172;SDS011;56280;49.662;8.408;2023-04-09T13:13:52;9.30;;;6.60;;
69172;SDS011;56280;49.662;8.408;2023-04-09T13:16:17;7.60;;;5.77;;
69172;SDS011;56280;49.662;8.408;2023-04-09T13:18:43;8.17;;;6.20;;
69172;SDS011;56280;49.662;8.408;2023-04-09T13:21:08;7.80;;;5.67;;
69172;SDS011;56280;49.662;8.408;2023-04-09T13:23:33;7.60;;;5.63;;
69172;SDS011;56280;49.662;8.408;2023-04-09T13:25:59;6.73;;;5.03;;
69172;SDS011;56280;49.662;8.408;2023-04-09T13:28:25;7.28;;;5.47;;
69172;SDS011;56280;49.662;8.408;2023-04-09T13:30:50;7.10;;;5.45;;
69172;SDS011;56280;49.662;8.408;2023-04-09T13:33:16;6.73;;;5.10;;
69172;SDS011;56280;49.662;8.408;2023-04-09T13:35:41;7.27;;;5.10;;
69172;SDS011;56280;49.662;8.408;2023-04-09T13:38:07;6.63;;;5.00;;
69172;SDS011;56280;49.662;8.408;2023-04-09T13:40:32;7.43;;;5.53;;
69172;SDS011;56280;49.662;8.408;2023-04-09T13:42:57;6.83;;;5.03;;
69172;SDS011;56280;49.662;8.408;2023-04-09T13:45:23;6.50;;;4.90;;
69172;SDS011;56280;49.662;8.408;2023-04-09T13:47:48;6.50;;;5.00;;
69172;SDS011;56280;49.662;8.408;2023-04-09T13:50:13;7.00;;;5.10;;
69172;SDS011;56280;49.662;8.408;2023-04-09T13:52:39;6.90;;;5.20;;
69172;SDS011;56280;49.662;8.408;2023-04-09T13:55:05;6.93;;;4.73;;
69172;SDS011;56280;49.662;8.408;2023-04-09T13:57:31;6.78;;;4.70;;
69172;SDS011;56280;49.662;8.408;2023-04-09T13:59:56;6.90;;;5.30;;
69172;SDS011;56280;49.662;8.408;2023-04-09T14:02:25;7.72;;;5.30;;
69172;SDS011;56280;49.662;8.408;2023-04-09T14:04:51;7.63;;;5.20;;
69172;SDS011;56280;49.662;8.408;2023-04-09T14:07:17;6.90;;;5.10;;
69172;SDS011;56280;49.662;8.408;2023-04-09T14:09:42;6.40;;;4.60;;
69172;SDS011;56280;49.662;8.408;2023-04-09T14:12:08;6.68;;;5.15;;
69172;SDS011;56280;49.662;8.408;2023-04-09T14:14:33;7.07;;;5.20;;
69172;SDS011;56280;49.662;8.408;2023-04-09T14:16:58;6.50;;;5.23;;
69172;SDS011;56280;49.662;8.408;2023-04-09T14:19:24;6.50;;;5.17;;
69172;SDS011;56280;49.662;8.408;2023-04-09T14:21:49;7.07;;;5.20;;
69172;SDS011;56280;49.662;8.408;2023-04-09T14:24:17;6.45;;;5.20;;
69172;SDS011;56280;49.662;8.408;2023-04-09T14:26:44;6.70;;;4.90;;
69172;SDS011;56280;49.662;8.408;2023-04-09T14:29:09;7.18;;;5.18;;
69172;SDS011;56280;49.662;8.408;2023-04-09T14:31:35;6.60;;;5.18;;
69172;SDS011;56280;49.662;8.408;2023-04-09T14:34:00;6.57;;;5.00;;
69172;SDS011;56280;49.662;8.408;2023-04-09T14:36:26;6.57;;;4.97;;